ADDS METAR Data INFO
IDs: Format: Raw Decoded Include TAF

Data at: 1314 UTC 21 May 2018

METAR for:KI69 (Batavia/Clermont Cnt, OH, US)
Text:KI69 211256Z AUTO 00000KT 10SM SCT008 BKN050 20/18 A3016 RMK AO2 T01950182
Temperature: 19.5°C ( 67°F)
Dewpoint: 18.2°C ( 65°F) [RH = 92%]
Pressure (altimeter):30.16 inches Hg (1021.4 mb)
Winds:calm
Visibility:10 or more sm (16+ km)
Ceiling:5000 feet AGL
Clouds: scattered clouds at 800 feet AGL, broken clouds at 5000 feet AGL
QC Flag:automated observation with no human augmentation